createdAt,value
2022-11-30T00:01:41.054Z,14.30
2022-11-30T00:04:08.368Z,14.70
2022-11-30T00:06:35.159Z,14.67
2022-11-30T00:09:01.955Z,13.73
2022-11-30T00:11:29.849Z,13.77
2022-11-30T00:13:56.814Z,14.47
2022-11-30T00:16:23.608Z,13.63
2022-11-30T00:18:50.750Z,13.40
2022-11-30T00:21:17.710Z,14.47
2022-11-30T00:23:46.134Z,14.53
2022-11-30T00:26:18.139Z,13.77
2022-11-30T00:28:50.849Z,12.90
2022-11-30T00:31:18.974Z,13.77
2022-11-30T00:33:51.170Z,14.37
2022-11-30T00:36:22.759Z,13.27
2022-11-30T00:38:56.131Z,12.90
2022-11-30T00:41:22.899Z,13.70
2022-11-30T00:43:49.609Z,13.60
2022-11-30T00:46:16.403Z,12.87
2022-11-30T00:48:46.710Z,13.50
2022-11-30T00:51:13.884Z,12.23
2022-11-30T00:53:41.079Z,13.70
2022-11-30T00:56:08.859Z,12.10
2022-11-30T00:58:35.842Z,13.43
2022-11-30T01:01:02.855Z,13.27
2022-11-30T01:03:29.995Z,12.53
2022-11-30T01:06:05.736Z,13.23
2022-11-30T01:08:35.146Z,12.30
2022-11-30T01:11:15.088Z,12.43
2022-11-30T01:13:41.973Z,12.37
2022-11-30T01:16:15.914Z,12.73
2022-11-30T01:18:43.921Z,12.20
2022-11-30T01:21:13.791Z,13.23
2022-11-30T01:23:41.081Z,12.40
2022-11-30T01:26:08.368Z,11.93
2022-11-30T01:28:35.500Z,12.13
2022-11-30T01:31:07.243Z,12.97
2022-11-30T01:33:34.318Z,12.77
2022-11-30T01:36:11.955Z,12.00
2022-11-30T01:38:41.913Z,12.03
2022-11-30T01:41:11.513Z,12.67
2022-11-30T01:43:42.558Z,12.97
2022-11-30T01:46:36.613Z,12.23
2022-11-30T01:49:20.891Z,12.60
2022-11-30T01:51:56.967Z,11.97
2022-11-30T01:54:29.950Z,13.57
2022-11-30T01:57:09.482Z,13.23
2022-11-30T01:59:36.599Z,13.53
2022-11-30T02:02:03.399Z,13.33
2022-11-30T02:04:32.987Z,13.57
2022-11-30T02:07:01.248Z,13.60
2022-11-30T02:09:29.009Z,13.77
2022-11-30T02:11:56.809Z,14.33
2022-11-30T02:14:55.054Z,16.10
2022-11-30T02:17:40.329Z,14.37
2022-11-30T02:20:41.561Z,14.33
2022-11-30T02:23:24.337Z,15.20
2022-11-30T02:26:22.567Z,14.03
2022-11-30T02:29:16.672Z,13.90
2022-11-30T02:31:52.396Z,13.73
2022-11-30T02:34:22.194Z,13.97
2022-11-30T02:36:49.460Z,13.40
2022-11-30T02:39:17.228Z,15.07
2022-11-30T02:41:44.078Z,15.50
2022-11-30T02:44:11.901Z,15.17
2022-11-30T02:46:53.216Z,15.67
2022-11-30T02:49:45.872Z,14.07
2022-11-30T02:52:16.297Z,13.80
2022-11-30T02:54:43.527Z,15.13
2022-11-30T02:57:16.719Z,15.90
2022-11-30T02:59:43.623Z,14.57
2022-11-30T03:02:10.313Z,14.63
2022-11-30T03:04:37.095Z,16.03
2022-11-30T03:07:06.994Z,15.50
2022-11-30T03:09:36.071Z,15.33
2022-11-30T03:12:02.894Z,15.33
2022-11-30T03:14:29.655Z,15.23
2022-11-30T03:16:56.384Z,15.33
2022-11-30T03:19:23.245Z,15.27
2022-11-30T03:21:50.250Z,14.97
2022-11-30T03:24:16.922Z,14.50
2022-11-30T03:26:44.167Z,15.43
2022-11-30T03:29:10.938Z,15.47
2022-11-30T03:31:37.697Z,14.57
2022-11-30T03:34:04.703Z,14.40
2022-11-30T03:36:31.537Z,14.90
2022-11-30T03:38:58.363Z,14.90
2022-11-30T03:41:25.144Z,15.23
2022-11-30T03:43:52.046Z,13.17
2022-11-30T03:46:18.865Z,14.60
2022-11-30T03:48:45.890Z,13.87
2022-11-30T03:51:15.712Z,14.47
2022-11-30T03:53:45.910Z,13.80
2022-11-30T03:56:14.331Z,13.33
2022-11-30T03:58:41.202Z,14.07
2022-11-30T04:01:13.533Z,14.70
2022-11-30T04:03:40.962Z,14.37
2022-11-30T04:06:12.077Z,13.07
2022-11-30T04:08:41.342Z,14.77
2022-11-30T04:11:08.682Z,14.17
2022-11-30T04:13:37.123Z,14.60
2022-11-30T04:16:05.223Z,14.70
2022-11-30T04:18:33.430Z,13.87
2022-11-30T04:21:03.934Z,14.50
2022-11-30T04:23:33.472Z,14.83
2022-11-30T04:26:02.355Z,15.03
2022-11-30T04:28:29.200Z,15.27
2022-11-30T04:30:56.325Z,15.83
2022-11-30T04:33:23.339Z,14.60
2022-11-30T04:35:54.255Z,15.73
2022-11-30T04:38:20.960Z,14.67
2022-11-30T04:40:47.703Z,15.40
2022-11-30T04:43:14.645Z,14.87
2022-11-30T04:45:42.789Z,15.03
2022-11-30T04:48:09.673Z,15.60
2022-11-30T04:50:37.354Z,14.97
2022-11-30T04:53:04.369Z,15.30
2022-11-30T04:55:31.535Z,15.17
2022-11-30T04:57:58.519Z,15.13
2022-11-30T05:00:25.583Z,15.00
2022-11-30T05:02:53.393Z,14.57
2022-11-30T05:05:20.531Z,14.40
2022-11-30T05:07:51.469Z,15.23
2022-11-30T05:10:18.333Z,13.87
2022-11-30T05:12:45.338Z,15.53
2022-11-30T05:15:12.036Z,15.93
2022-11-30T05:17:39.608Z,15.77
2022-11-30T05:20:07.004Z,16.03
2022-11-30T05:22:36.565Z,16.47
2022-11-30T05:25:06.961Z,16.33
2022-11-30T05:27:33.709Z,15.43
2022-11-30T05:30:04.002Z,14.60
2022-11-30T05:32:30.711Z,16.27
2022-11-30T05:34:57.904Z,16.40
2022-11-30T05:37:24.976Z,15.60
2022-11-30T05:39:51.665Z,16.03
2022-11-30T05:42:21.744Z,15.37
2022-11-30T05:44:51.306Z,15.77
2022-11-30T05:47:18.399Z,15.07
2022-11-30T05:49:45.250Z,16.03
2022-11-30T05:52:12.367Z,16.07
2022-11-30T05:54:39.258Z,16.60
2022-11-30T05:57:08.799Z,16.13
2022-11-30T05:59:35.558Z,16.23
2022-11-30T06:02:02.385Z,16.23
2022-11-30T06:04:29.322Z,15.97
2022-11-30T06:06:56.130Z,16.97
2022-11-30T06:09:23.186Z,15.87
2022-11-30T06:11:53.084Z,16.23
2022-11-30T06:14:19.780Z,16.13
2022-11-30T06:16:46.676Z,16.10
2022-11-30T06:19:13.647Z,17.43
2022-11-30T06:21:40.421Z,14.80
2022-11-30T06:24:10.268Z,16.37
2022-11-30T06:26:37.262Z,16.70
2022-11-30T06:29:04.099Z,16.67
2022-11-30T06:31:31.977Z,16.43
2022-11-30T06:33:59.587Z,16.33
2022-11-30T06:36:31.327Z,16.77
2022-11-30T06:39:02.625Z,16.73
2022-11-30T06:41:29.424Z,16.53
2022-11-30T06:43:56.248Z,17.57
2022-11-30T06:46:24.007Z,16.93
2022-11-30T06:48:51.058Z,16.50
2022-11-30T06:51:17.839Z,17.30
2022-11-30T06:53:45.698Z,16.77
2022-11-30T06:56:13.018Z,16.67
2022-11-30T06:58:40.570Z,16.70
2022-11-30T07:01:09.682Z,16.67
2022-11-30T07:03:37.137Z,16.67
2022-11-30T07:06:12.128Z,16.87
2022-11-30T07:08:40.028Z,16.50
2022-11-30T07:11:07.886Z,16.00
2022-11-30T07:13:34.947Z,15.70
2022-11-30T07:16:08.848Z,16.30
2022-11-30T07:18:35.780Z,15.77
2022-11-30T07:21:06.030Z,16.80
2022-11-30T07:23:56.319Z,17.03
2022-11-30T07:26:24.667Z,16.70
2022-11-30T07:28:55.703Z,18.13
2022-11-30T07:31:27.533Z,16.60
2022-11-30T07:33:55.766Z,16.93
2022-11-30T07:36:24.621Z,17.33
2022-11-30T07:38:51.551Z,17.70
2022-11-30T07:41:18.396Z,17.33
2022-11-30T07:43:48.068Z,18.10
2022-11-30T07:46:18.143Z,17.23
2022-11-30T07:48:46.524Z,17.90
2022-11-30T07:51:23.406Z,18.37
2022-11-30T07:53:50.430Z,17.17
2022-11-30T07:56:19.621Z,18.23
2022-11-30T07:58:47.165Z,16.90
2022-11-30T08:01:17.178Z,16.57
2022-11-30T08:03:44.232Z,16.80
2022-11-30T08:06:13.371Z,16.77
2022-11-30T08:08:43.452Z,16.43
2022-11-30T08:11:13.414Z,16.60
2022-11-30T08:13:40.648Z,16.37
2022-11-30T08:16:09.892Z,16.07
2022-11-30T08:18:37.298Z,16.83
2022-11-30T08:21:09.325Z,17.77
2022-11-30T08:23:38.624Z,17.03
2022-11-30T08:26:08.190Z,15.87
2022-11-30T08:28:37.766Z,16.63
2022-11-30T08:31:07.888Z,17.03
2022-11-30T08:33:36.485Z,17.90
2022-11-30T08:36:11.483Z,18.03
2022-11-30T08:38:39.065Z,18.23
2022-11-30T08:41:07.199Z,18.43
2022-11-30T08:43:37.007Z,18.33
2022-11-30T08:46:21.248Z,18.33
2022-11-30T08:49:02.335Z,19.57
2022-11-30T08:52:14.693Z,19.30
2022-11-30T08:54:27.427Z,19.60
2022-11-30T08:56:57.238Z,19.00
2022-11-30T08:59:24.015Z,18.77
2022-11-30T09:01:50.810Z,18.87
2022-11-30T09:04:17.623Z,18.90
2022-11-30T09:06:44.550Z,18.70
2022-11-30T09:09:11.354Z,16.90
2022-11-30T09:11:38.046Z,17.50
2022-11-30T09:14:05.296Z,18.57
2022-11-30T09:16:32.397Z,18.47
2022-11-30T09:18:59.203Z,17.50
2022-11-30T09:21:26.183Z,16.80
2022-11-30T09:23:58.923Z,17.40
2022-11-30T09:26:29.102Z,18.97
2022-11-30T09:28:55.950Z,17.17
2022-11-30T09:31:27.617Z,16.67
2022-11-30T09:33:56.711Z,18.37
2022-11-30T09:36:27.207Z,17.43
2022-11-30T09:38:55.544Z,16.83
2022-11-30T09:41:34.194Z,18.00
2022-11-30T09:44:16.451Z,16.87
2022-11-30T09:46:48.481Z,17.90
2022-11-30T09:49:31.176Z,17.33
2022-11-30T09:52:05.246Z,18.90
2022-11-30T09:54:38.602Z,17.37
2022-11-30T09:57:17.425Z,18.60
2022-11-30T09:59:53.212Z,17.87
2022-11-30T10:02:22.512Z,18.00
2022-11-30T10:04:49.894Z,18.57
2022-11-30T10:07:38.827Z,18.13
2022-11-30T10:10:32.176Z,18.80
2022-11-30T10:13:18.129Z,17.70
2022-11-30T10:15:58.901Z,17.87
2022-11-30T10:18:35.462Z,18.70
2022-11-30T10:21:15.566Z,18.37
2022-11-30T10:23:47.228Z,17.60
2022-11-30T10:26:20.765Z,17.80
2022-11-30T10:28:57.576Z,18.67
2022-11-30T10:31:32.960Z,16.97
2022-11-30T10:34:27.590Z,17.23
2022-11-30T10:37:20.225Z,15.27
2022-11-30T10:40:01.761Z,16.97
2022-11-30T10:42:36.749Z,16.87
2022-11-30T10:45:05.933Z,17.70
2022-11-30T10:47:37.273Z,17.93
2022-11-30T10:50:08.064Z,16.30
2022-11-30T10:52:45.146Z,17.83
2022-11-30T10:55:43.389Z,16.53
2022-11-30T10:58:17.662Z,17.50
2022-11-30T11:01:05.864Z,15.93
2022-11-30T11:03:33.178Z,15.83
2022-11-30T11:06:08.794Z,14.87
2022-11-30T11:08:35.597Z,15.80
2022-11-30T11:11:02.727Z,16.17
2022-11-30T11:13:43.533Z,15.37
2022-11-30T11:16:12.497Z,17.10
2022-11-30T11:18:53.768Z,17.33
2022-11-30T11:21:22.120Z,17.07
2022-11-30T11:23:53.902Z,16.83
2022-11-30T11:26:37.816Z,17.00
2022-11-30T11:29:05.250Z,16.93
2022-11-30T11:31:47.389Z,17.00
2022-11-30T11:34:26.485Z,17.17
2022-11-30T11:37:30.973Z,16.60
2022-11-30T11:40:16.728Z,16.20
2022-11-30T11:42:49.084Z,16.17
2022-11-30T11:45:38.274Z,16.50
2022-11-30T11:48:22.573Z,16.13
2022-11-30T11:51:07.753Z,15.43
2022-11-30T11:53:53.096Z,16.43
2022-11-30T11:56:20.465Z,16.83
2022-11-30T11:59:32.647Z,15.77
2022-11-30T12:02:22.083Z,16.10
2022-11-30T12:04:59.437Z,15.60
2022-11-30T12:07:59.109Z,16.47
2022-11-30T12:10:52.643Z,16.37
2022-11-30T12:13:29.014Z,17.57
2022-11-30T12:16:14.674Z,16.13
2022-11-30T12:19:01.634Z,16.47
2022-11-30T12:22:09.799Z,17.10
2022-11-30T12:24:55.379Z,17.87
2022-11-30T12:27:53.530Z,17.60
2022-11-30T12:30:45.477Z,17.47
2022-11-30T12:33:40.801Z,17.30
2022-11-30T12:36:29.108Z,17.70
2022-11-30T12:39:06.846Z,17.50
2022-11-30T12:41:49.548Z,17.07
2022-11-30T12:44:42.161Z,15.73
2022-11-30T12:47:21.084Z,17.10
2022-11-30T12:50:17.535Z,16.90
2022-11-30T12:52:56.547Z,17.53
2022-11-30T12:55:43.088Z,16.63
2022-11-30T12:58:29.643Z,17.83
2022-11-30T13:01:22.024Z,16.90
2022-11-30T13:04:17.967Z,17.67
2022-11-30T13:06:53.992Z,16.67
2022-11-30T13:09:28.264Z,17.40
2022-11-30T13:12:01.844Z,17.77
2022-11-30T13:14:30.311Z,17.03
2022-11-30T13:17:10.642Z,17.70
2022-11-30T13:19:49.307Z,17.00
2022-11-30T13:22:40.194Z,17.27
2022-11-30T13:25:59.242Z,17.97
2022-11-30T13:28:42.418Z,16.47
2022-11-30T13:31:56.105Z,16.47
2022-11-30T13:34:32.940Z,15.97
2022-11-30T13:37:21.920Z,16.77
2022-11-30T13:39:53.617Z,16.77
2022-11-30T13:42:37.602Z,16.93
2022-11-30T13:45:13.406Z,16.20
2022-11-30T13:47:57.042Z,15.27
2022-11-30T13:50:39.162Z,14.90
2022-11-30T13:53:27.601Z,14.77
2022-11-30T13:56:01.773Z,14.13
2022-11-30T13:58:30.260Z,15.20
2022-11-30T14:01:24.311Z,14.70
2022-11-30T14:04:16.598Z,15.73
2022-11-30T14:06:43.381Z,14.50
2022-11-30T14:09:40.805Z,15.57
2022-11-30T14:12:47.328Z,13.63
2022-11-30T14:15:39.409Z,15.30
2022-11-30T14:18:08.628Z,14.20
2022-11-30T14:20:45.880Z,14.87
2022-11-30T14:23:17.248Z,15.53
2022-11-30T14:25:56.581Z,14.83
2022-11-30T14:28:34.590Z,14.67
2022-11-30T14:31:01.886Z,15.30
2022-11-30T14:34:00.424Z,14.70
2022-11-30T14:36:34.915Z,15.60
2022-11-30T14:39:02.095Z,15.83
2022-11-30T14:41:32.396Z,16.47
2022-11-30T14:44:02.858Z,17.40
2022-11-30T14:46:30.540Z,15.70
2022-11-30T14:49:05.540Z,13.90
2022-11-30T14:51:33.141Z,15.40
2022-11-30T14:54:24.235Z,14.70
2022-11-30T14:56:58.407Z,14.07
2022-11-30T14:59:47.307Z,13.10
2022-11-30T15:02:37.299Z,14.50
2022-11-30T15:05:07.693Z,13.73
2022-11-30T15:07:36.415Z,14.40
2022-11-30T15:10:07.905Z,15.27
2022-11-30T15:12:36.826Z,14.60
2022-11-30T15:15:05.431Z,13.93
2022-11-30T15:17:32.762Z,14.90
2022-11-30T15:19:59.437Z,14.30
2022-11-30T15:22:34.131Z,14.07
2022-11-30T15:25:01.148Z,13.50
2022-11-30T15:27:28.224Z,14.33
2022-11-30T15:30:00.861Z,13.10
2022-11-30T15:32:28.589Z,12.93
2022-11-30T15:34:57.753Z,12.00
2022-11-30T15:37:33.720Z,12.77
2022-11-30T15:40:03.006Z,12.23
2022-11-30T15:42:40.040Z,12.67
2022-11-30T15:45:23.272Z,12.20
2022-11-30T15:47:51.137Z,12.50
2022-11-30T15:50:26.842Z,12.33
2022-11-30T15:52:55.884Z,11.73
2022-11-30T15:55:45.712Z,11.17
2022-11-30T15:58:37.292Z,10.77
2022-11-30T16:01:20.743Z,11.13
2022-11-30T16:03:59.577Z,11.63
2022-11-30T16:06:30.429Z,11.53
2022-11-30T16:08:58.582Z,12.50
2022-11-30T16:11:25.683Z,12.03
2022-11-30T16:13:52.496Z,12.90
2022-11-30T16:16:28.428Z,14.27
2022-11-30T16:18:55.413Z,14.33
2022-11-30T16:21:22.157Z,14.27
2022-11-30T16:23:49.367Z,13.53
2022-11-30T16:26:49.552Z,12.00
2022-11-30T16:29:07.502Z,12.20
2022-11-30T16:31:34.653Z,11.97
2022-11-30T16:34:01.633Z,12.20
2022-11-30T16:36:32.963Z,12.37
2022-11-30T16:38:59.793Z,13.00
2022-11-30T16:41:28.450Z,13.10
2022-11-30T16:43:56.544Z,12.77
2022-11-30T16:46:25.688Z,12.50
2022-11-30T16:48:52.498Z,12.50
2022-11-30T16:51:31.768Z,12.53
2022-11-30T16:53:58.752Z,12.33
2022-11-30T16:56:25.557Z,14.30
2022-11-30T16:58:52.592Z,13.77
2022-11-30T17:01:31.612Z,13.03
2022-11-30T17:04:23.386Z,14.13
2022-11-30T17:06:52.808Z,13.50
2022-11-30T17:09:22.125Z,13.20
2022-11-30T17:11:51.028Z,13.83
2022-11-30T17:14:19.045Z,13.80
2022-11-30T17:16:45.792Z,13.40
2022-11-30T17:19:12.883Z,14.80
2022-11-30T17:21:40.264Z,14.67
2022-11-30T17:24:07.307Z,13.47
2022-11-30T17:26:36.991Z,15.03
2022-11-30T17:29:04.175Z,14.87
2022-11-30T17:31:31.129Z,14.50
2022-11-30T17:33:57.924Z,14.83
2022-11-30T17:36:26.756Z,16.47
2022-11-30T17:38:53.574Z,15.33
2022-11-30T17:41:21.959Z,16.30
2022-11-30T17:43:49.405Z,14.90
2022-11-30T17:46:18.515Z,15.00
2022-11-30T17:48:45.452Z,15.33
2022-11-30T17:51:12.905Z,14.00
2022-11-30T17:53:41.262Z,14.83
2022-11-30T17:56:14.133Z,15.27
2022-11-30T17:58:44.185Z,13.43
2022-11-30T18:01:38.274Z,15.07
2022-11-30T18:04:05.220Z,13.37
2022-11-30T18:06:31.957Z,15.03
2022-11-30T18:08:58.864Z,15.73
2022-11-30T18:11:26.245Z,15.27
2022-11-30T18:13:55.311Z,14.83
2022-11-30T18:16:27.161Z,15.53
2022-11-30T18:18:56.623Z,14.57
2022-11-30T18:21:25.185Z,14.80
2022-11-30T18:23:53.531Z,14.63
2022-11-30T18:26:23.352Z,14.67
2022-11-30T18:28:58.382Z,15.63
2022-11-30T18:31:26.160Z,14.73
2022-11-30T18:33:55.906Z,15.00
2022-11-30T18:36:26.089Z,14.47
2022-11-30T18:38:53.051Z,15.90
2022-11-30T18:41:20.190Z,16.07
2022-11-30T18:43:46.870Z,16.10
2022-11-30T18:46:16.646Z,16.10
2022-11-30T18:48:43.365Z,16.97
2022-11-30T18:51:15.210Z,15.67
2022-11-30T18:53:42.735Z,16.60
2022-11-30T18:56:18.126Z,15.97
2022-11-30T18:58:45.864Z,16.93
2022-11-30T19:01:18.300Z,16.37
2022-11-30T19:03:54.456Z,17.33
2022-11-30T19:06:24.047Z,17.03
2022-11-30T19:08:51.144Z,17.77
2022-11-30T19:11:18.319Z,16.33
2022-11-30T19:13:45.503Z,16.83
2022-11-30T19:16:15.456Z,16.37
2022-11-30T19:18:44.888Z,17.37
2022-11-30T19:21:15.632Z,17.90
2022-11-30T19:23:45.224Z,15.93
2022-11-30T19:26:13.658Z,17.30
2022-11-30T19:28:41.857Z,17.47
2022-11-30T19:31:09.988Z,16.57
2022-11-30T19:33:38.909Z,17.60
2022-11-30T19:36:08.042Z,16.97
2022-11-30T19:38:34.781Z,17.07
2022-11-30T19:41:09.251Z,18.10
2022-11-30T19:43:36.772Z,16.23
2022-11-30T19:46:10.435Z,17.27
2022-11-30T19:48:37.908Z,16.77
2022-11-30T19:51:06.806Z,17.30
2022-11-30T19:53:34.465Z,17.07
2022-11-30T19:56:28.653Z,17.23
2022-11-30T19:59:01.167Z,16.53
2022-11-30T20:01:31.212Z,18.10
2022-11-30T20:03:58.450Z,18.50
2022-11-30T20:06:28.525Z,17.63
2022-11-30T20:09:04.620Z,17.77
2022-11-30T20:11:32.741Z,18.73
2022-11-30T20:14:00.291Z,18.17
2022-11-30T20:16:27.624Z,19.07
2022-11-30T20:18:59.682Z,18.30
2022-11-30T20:21:36.473Z,18.13
2022-11-30T20:24:06.428Z,18.53
2022-11-30T20:26:41.520Z,19.53
2022-11-30T20:29:12.175Z,18.27
2022-11-30T20:31:39.480Z,18.57
2022-11-30T20:34:08.281Z,19.27
2022-11-30T20:36:35.949Z,18.70
2022-11-30T20:39:03.706Z,19.03
2022-11-30T20:41:30.503Z,18.80
2022-11-30T20:43:57.415Z,18.03
2022-11-30T20:46:28.450Z,18.47
2022-11-30T20:48:56.382Z,18.30
2022-11-30T20:51:31.292Z,18.93
2022-11-30T20:54:01.297Z,19.20
2022-11-30T20:56:28.113Z,19.07
2022-11-30T20:58:54.813Z,20.07
2022-11-30T21:01:22.573Z,20.13
2022-11-30T21:03:49.862Z,19.73
2022-11-30T21:06:16.640Z,18.83
2022-11-30T21:08:43.946Z,19.97
2022-11-30T21:11:21.667Z,18.63
2022-11-30T21:13:49.994Z,18.73
2022-11-30T21:16:24.099Z,19.43
2022-11-30T21:18:58.321Z,19.40
2022-11-30T21:21:30.967Z,18.73
2022-11-30T21:24:00.585Z,19.30
2022-11-30T21:26:35.063Z,18.97
2022-11-30T21:29:07.654Z,19.17
2022-11-30T21:31:34.697Z,18.53
2022-11-30T21:34:08.237Z,18.97
2022-11-30T21:36:35.250Z,19.20
2022-11-30T21:39:09.275Z,19.40
2022-11-30T21:41:38.894Z,18.30
2022-11-30T21:44:08.164Z,20.07
2022-11-30T21:46:35.077Z,19.03
2022-11-30T21:49:02.999Z,18.50
2022-11-30T21:51:34.226Z,18.67
2022-11-30T21:54:07.001Z,19.40
2022-11-30T21:56:38.213Z,18.20
2022-11-30T21:59:13.737Z,17.93
2022-11-30T22:01:43.277Z,17.23
2022-11-30T22:04:11.167Z,18.13
2022-11-30T22:06:42.346Z,18.47
2022-11-30T22:09:14.244Z,18.33
2022-11-30T22:11:45.024Z,17.53
2022-11-30T22:14:15.673Z,16.97
2022-11-30T22:16:43.894Z,17.80
2022-11-30T22:19:11.084Z,17.60
2022-11-30T22:21:38.490Z,16.63
2022-11-30T22:24:11.640Z,16.00
2022-11-30T22:26:40.800Z,17.03
2022-11-30T22:29:15.389Z,16.20
2022-11-30T22:31:45.987Z,16.90
2022-11-30T22:34:13.129Z,17.07
2022-11-30T22:36:41.227Z,17.93
2022-11-30T22:39:19.187Z,17.77
2022-11-30T22:41:49.908Z,17.50
2022-11-30T22:44:23.499Z,17.00
2022-11-30T22:46:50.368Z,17.07
2022-11-30T22:49:22.267Z,15.73
2022-11-30T22:51:50.113Z,17.60
2022-11-30T22:54:17.382Z,16.63
2022-11-30T22:56:46.293Z,16.97
2022-11-30T22:59:14.085Z,16.23
2022-11-30T23:01:46.200Z,17.63
2022-11-30T23:04:15.663Z,17.17
2022-11-30T23:06:43.713Z,17.90
2022-11-30T23:09:13.916Z,16.83
2022-11-30T23:11:41.609Z,17.27
2022-11-30T23:14:09.644Z,17.30
2022-11-30T23:16:37.144Z,18.80
2022-11-30T23:19:04.945Z,17.40
2022-11-30T23:21:40.277Z,17.27
2022-11-30T23:24:09.147Z,18.00
2022-11-30T23:26:38.230Z,18.50
2022-11-30T23:29:11.257Z,17.77
2022-11-30T23:31:39.907Z,18.50
2022-11-30T23:34:12.881Z,18.83
2022-11-30T23:36:39.775Z,18.20
2022-11-30T23:39:11.370Z,18.23
2022-11-30T23:41:38.665Z,18.40
2022-11-30T23:44:07.197Z,18.13
2022-11-30T23:46:34.709Z,18.73
2022-11-30T23:49:01.553Z,18.63
2022-11-30T23:51:28.363Z,17.53
2022-11-30T23:53:58.098Z,20.07
2022-11-30T23:56:25.273Z,21.00
2022-11-30T23:58:52.271Z,18.57
